Time;durP1;ratioP1;P1;durP2;ratioP2;P2;SDS_P1;SDS_P2;PMS_P1;PMS_P2;Temp;Humidity;BMP_temperature;BMP_pressure;BME280_temperature;BME280_humidity;BME280_pressure;Samples;Min_cycle;Max_cycle;Signal;HPM_P1;HPM_P2
2022/07/29 00:02:11;;;;;;;2.17;1.65;;;;;;;18.19;75.78;99889.50;4806660;29;20111;-82
2022/07/29 00:04:37;;;;;;;1.50;1.25;;;;;;;18.41;75.90;99915.81;4815080;29;20090;-82
2022/07/29 00:07:04;;;;;;;6.05;1.30;;;;;;;18.33;75.59;99907.34;4811180;29;20569;-81
2022/07/29 00:09:32;;;;;;;4.32;1.48;;;;;;;18.56;75.58;99940.72;4809443;29;20051;-83
2022/07/29 00:12:00;;;;;;;1.50;1.40;;;;;;;18.59;75.62;99948.50;4815281;29;20049;-82
2022/07/29 00:14:28;;;;;;;3.80;1.52;;;;;;;18.65;75.41;99948.22;4823905;29;20563;-82
2022/07/29 00:16:55;;;;;;;4.00;1.40;;;;;;;18.68;75.31;99944.63;4815057;29;20058;-84
2022/07/29 00:19:21;;;;;;;2.38;1.42;;;;;;;18.57;74.98;99916.06;4814051;29;20038;-82
2022/07/29 00:21:48;;;;;;;2.78;1.63;;;;;;;18.55;74.92;99912.66;4820882;29;20046;-82
2022/07/29 00:24:14;;;;;;;1.50;1.30;;;;;;;18.74;74.96;99940.88;4822415;29;20419;-82
2022/07/29 00:26:40;;;;;;;3.45;1.30;;;;;;;18.53;74.92;99906.56;4823409;29;20070;-79
2022/07/29 00:29:08;;;;;;;3.25;1.40;;;;;;;18.85;74.75;99958.91;4808474;29;20055;-78
2022/07/29 00:31:34;;;;;;;4.15;1.73;;;;;;;18.79;74.46;99955.56;4820912;29;20419;-79
2022/07/29 00:34:00;;;;;;;2.42;1.63;;;;;;;18.75;74.43;99946.09;4828324;29;20066;-82
2022/07/29 00:36:26;;;;;;;2.45;1.60;;;;;;;18.80;74.24;99954.66;4834582;29;20054;-80
2022/07/29 00:38:52;;;;;;;3.78;1.60;;;;;;;18.67;74.27;99941.13;4833641;29;20046;-80
2022/07/29 00:41:19;;;;;;;1.65;1.30;;;;;;;18.70;74.27;99947.19;4832902;29;20043;-80
2022/07/29 00:43:45;;;;;;;2.15;1.65;;;;;;;18.46;74.31;99919.16;4834240;29;20042;-79
2022/07/29 00:46:11;;;;;;;2.65;1.52;;;;;;;18.54;74.31;99939.91;4827777;29;20050;-78
2022/07/29 00:48:38;;;;;;;3.35;1.52;;;;;;;18.52;73.98;99960.19;4813883;29;20047;-81
2022/07/29 00:51:07;;;;;;;2.00;1.50;;;;;;;18.31;73.97;99951.38;4797889;29;20457;-81
2022/07/29 00:53:34;;;;;;;1.85;1.42;;;;;;;18.40;74.27;99969.44;4810948;29;20149;-80
2022/07/29 00:56:00;;;;;;;1.40;1.30;;;;;;;18.31;74.24;99968.00;4810170;29;20047;-78
2022/07/29 00:58:27;;;;;;;2.08;1.40;;;;;;;18.14;74.10;99955.47;4810592;29;20065;-81
2022/07/29 01:00:53;;;;;;;2.33;1.45;;;;;;;18.11;74.06;99974.00;4818216;29;20035;-80
2022/07/29 01:03:19;;;;;;;2.47;1.42;;;;;;;18.01;74.46;99976.13;4826546;29;20043;-80
2022/07/29 01:05:46;;;;;;;2.60;1.50;;;;;;;17.89;74.15;99968.66;4811203;29;20077;-82
2022/07/29 01:08:15;;;;;;;3.95;1.50;;;;;;;17.69;74.58;99950.97;4811247;29;20050;-82
2022/07/29 01:10:43;;;;;;;2.45;1.48;;;;;;;17.80;74.33;99971.63;4809215;29;20076;-82
2022/07/29 01:13:10;;;;;;;2.03;1.50;;;;;;;17.65;74.22;99957.28;4809041;29;20042;-80
2022/07/29 01:15:47;;;;;;;1.63;1.42;;;;;;;17.53;74.13;99942.78;4809260;29;20081;-81
2022/07/29 01:18:37;;;;;;;4.60;1.77;;;;;;;17.52;74.27;99944.53;4809299;29;20043;-84
2022/07/29 01:21:18;;;;;;;3.33;1.70;;;;;;;17.65;73.87;99978.31;4811101;29;20070;-80
2022/07/29 01:24:11;;;;;;;4.63;1.50;;;;;;;17.56;74.14;99974.22;4812713;29;20110;-80
2022/07/29 01:26:52;;;;;;;2.55;1.60;;;;;;;17.67;74.51;99998.38;4809555;29;20046;-80
2022/07/29 01:29:24;;;;;;;2.35;1.60;;;;;;;17.64;74.39;100001.13;4793143;29;20046;-81
2022/07/29 01:32:06;;;;;;;3.17;1.60;;;;;;;17.58;74.55;99999.56;4824317;29;20050;-80
2022/07/29 01:34:41;;;;;;;;;;;;;;;17.50;74.52;100001.59;4814117;29;20047;-81
2022/07/29 01:37:19;;;;;;;4.70;1.60;;;;;;;17.36;74.09;99994.19;4814218;29;19980;-82
2022/07/29 01:39:49;;;;;;;3.75;1.60;;;;;;;17.35;74.49;99995.09;4817989;29;20483;-78
2022/07/29 01:42:32;;;;;;;3.50;1.70;;;;;;;17.33;74.80;100004.78;4812912;29;21400;-81
2022/07/29 01:45:14;;;;;;;2.50;1.30;;;;;;;17.28;74.75;99993.59;4797782;29;20405;-82
2022/07/29 01:47:46;;;;;;;3.58;1.67;;;;;;;17.24;74.90;99989.34;4808073;29;20074;-80
2022/07/29 01:50:16;;;;;;;5.78;1.75;;;;;;;17.22;74.89;99993.78;4807336;29;20070;-80
2022/07/29 01:52:52;;;;;;;2.13;1.70;;;;;;;16.99;74.91;99954.19;4800143;29;20512;-81
2022/07/29 01:55:22;;;;;;;3.05;1.77;;;;;;;17.16;75.00;99987.81;4812267;29;20110;-81
2022/07/29 01:57:49;;;;;;;2.65;1.90;;;;;;;17.06;74.90;99981.16;4804271;29;20129;-82
2022/07/29 02:00:16;;;;;;;3.58;1.80;;;;;;;17.03;75.25;99978.63;4797377;29;20075;-78
2022/07/29 02:02:45;;;;;;;1.77;1.35;;;;;;;16.99;75.34;99979.63;4808348;29;20042;-81
2022/07/29 02:05:16;;;;;;;2.33;1.63;;;;;;;17.07;75.40;99989.91;4807689;29;20058;-82
2022/07/29 02:07:44;;;;;;;1.60;1.50;;;;;;;16.95;75.21;99977.97;4807931;29;20097;-77
2022/07/29 02:10:12;;;;;;;3.13;1.65;;;;;;;17.01;75.14;99988.34;4806673;29;20122;-81
2022/07/29 02:12:42;;;;;;;2.20;1.50;;;;;;;16.84;74.97;99973.06;4810469;29;20090;-79
2022/07/29 02:15:32;;;;;;;1.63;1.50;;;;;;;17.05;75.03;100000.47;4810286;29;20095;-80
2022/07/29 02:18:06;;;;;;;2.78;1.50;;;;;;;16.98;74.97;99993.69;4806854;29;20053;-83
2022/07/29 02:20:33;;;;;;;6.15;5.43;;;;;;;17.08;74.91;100005.63;4806736;29;20039;-82
2022/07/29 02:23:02;;;;;;;1.70;1.50;;;;;;;17.08;74.83;99999.50;4807948;29;20199;-80
2022/07/29 02:25:31;;;;;;;2.17;1.48;;;;;;;16.93;74.69;99974.53;4807884;29;20577;-82
2022/07/29 02:28:00;;;;;;;2.88;1.60;;;;;;;16.99;74.54;99993.63;4809136;29;20141;-80
2022/07/29 02:30:28;;;;;;;3.28;1.60;;;;;;;17.16;74.81;100008.00;4806348;29;20424;-82
2022/07/29 02:32:55;;;;;;;3.45;1.50;;;;;;;17.15;74.44;100001.88;4809323;29;20042;-82
2022/07/29 02:35:22;;;;;;;2.65;1.60;;;;;;;17.13;74.45;100010.72;4805740;29;20046;-81
2022/07/29 02:38:50;;;;;;;3.58;1.42;;;;;;;17.10;74.51;100002.94;4815397;29;20042;-79
2022/07/29 02:40:39;;;;;;;2.70;1.50;;;;;;;17.09;74.33;99994.22;4809323;29;20060;-79
2022/07/29 02:43:08;;;;;;;3.85;1.80;;;;;;;17.23;74.30;100013.91;4783497;29;20209;-78
2022/07/29 02:45:34;;;;;;;3.60;1.40;;;;;;;17.22;74.23;100013.03;4810272;29;20046;-79
2022/07/29 02:48:10;;;;;;;5.55;1.70;;;;;;;17.27;74.07;100020.81;4794759;29;20061;-79
2022/07/29 02:50:46;;;;;;;4.78;1.58;;;;;;;17.25;73.98;100014.72;4812956;29;20053;-81
2022/07/29 02:53:18;;;;;;;3.30;1.90;;;;;;;17.14;74.10;99991.41;4820314;29;20057;-83
2022/07/29 02:55:51;;;;;;;2.05;1.60;;;;;;;17.34;73.81;100017.03;4806842;29;20046;-81
2022/07/29 02:58:40;;;;;;;2.92;1.38;;;;;;;17.43;73.79;100019.38;4806464;29;20050;-81
2022/07/29 03:01:21;;;;;;;5.38;1.92;;;;;;;17.45;73.79;100008.78;4823602;29;20042;-80
2022/07/29 03:03:49;;;;;;;3.00;1.40;;;;;;;17.49;73.52;100013.03;4768394;29;1387751;-81
2022/07/29 03:06:17;;;;;;;3.80;1.67;;;;;;;17.52;73.51;100004.19;4826762;29;20043;-81
2022/07/29 03:08:45;;;;;;;2.22;1.30;;;;;;;17.66;73.46;100028.25;4813452;29;20042;-80
2022/07/29 03:11:13;;;;;;;7.20;1.80;;;;;;;17.68;73.13;100010.63;4813599;29;20049;-82
2022/07/29 03:13:39;;;;;;;3.63;1.60;;;;;;;17.68;72.87;100005.38;4810810;29;20047;-78
2022/07/29 03:16:08;;;;;;;2.67;1.38;;;;;;;17.84;72.69;100020.59;4812673;29;20101;-82
2022/07/29 03:18:36;;;;;;;4.80;1.77;;;;;;;17.93;72.55;100017.66;4809287;29;20050;-78
2022/07/29 03:21:05;;;;;;;6.28;2.22;;;;;;;17.95;72.45;100017.59;4811498;29;20073;-82
2022/07/29 03:23:31;;;;;;;2.15;1.95;;;;;;;18.01;72.25;100018.25;4807890;29;20103;-78
2022/07/29 03:25:57;;;;;;;4.82;2.20;;;;;;;17.99;72.08;100006.91;4808904;29;20557;-82
2022/07/29 03:28:24;;;;;;;6.13;1.70;;;;;;;18.11;72.13;100012.66;4796995;29;20051;-80
2022/07/29 03:30:50;;;;;;;5.78;1.75;;;;;;;18.19;71.98;100021.16;4806944;29;20517;-80
2022/07/29 03:33:16;;;;;;;3.83;1.42;;;;;;;18.19;72.25;100015.88;4798894;29;21113;-81
2022/07/29 03:35:43;;;;;;;4.55;1.73;;;;;;;18.39;71.62;100028.28;4813367;29;20051;-78
2022/07/29 03:38:09;;;;;;;2.67;1.58;;;;;;;18.46;71.39;100024.53;4813066;29;20407;-81
2022/07/29 03:40:44;;;;;;;2.25;1.55;;;;;;;18.49;71.18;100007.72;4776891;29;20091;-80
2022/07/29 03:43:13;;;;;;;1.95;1.52;;;;;;;18.43;71.27;99992.16;4804592;29;20046;-80
2022/07/29 03:45:44;;;;;;;3.67;1.80;;;;;;;18.73;71.05;100027.00;4808813;29;20570;-79
2022/07/29 03:48:13;;;;;;;3.28;1.60;;;;;;;18.77;70.96;100006.66;4807087;29;20057;-78
2022/07/29 03:50:40;;;;;;;3.88;1.70;;;;;;;18.78;70.57;100013.63;4806520;29;20050;-82
2022/07/29 03:53:06;;;;;;;1.98;1.45;;;;;;;18.93;70.48;100031.47;4805130;29;20053;-81
2022/07/29 03:55:40;;;;;;;2.75;1.70;;;;;;;18.76;70.09;99997.03;4804477;29;20519;-82
2022/07/29 03:58:07;;;;;;;3.47;1.65;;;;;;;18.77;69.89;99985.56;4801526;29;20046;-80
2022/07/29 04:00:35;;;;;;;3.42;1.60;;;;;;;19.08;69.59;100013.38;4797965;29;20098;-81
2022/07/29 04:03:03;;;;;;;4.03;1.58;;;;;;;19.37;69.60;100035.03;4805764;29;20588;-82
2022/07/29 04:05:30;;;;;;;3.42;1.30;;;;;;;19.53;69.21;100033.44;4819530;29;20558;-81
2022/07/29 04:07:56;;;;;;;2.25;1.45;;;;;;;19.63;69.08;100022.50;4808798;29;20149;-81
2022/07/29 04:10:25;;;;;;;4.10;1.42;;;;;;;19.61;68.56;99997.97;4820411;29;20030;-82
2022/07/29 04:12:52;;;;;;;2.85;1.48;;;;;;;19.75;68.17;99990.28;4804919;29;20041;-81
2022/07/29 04:15:19;;;;;;;4.07;1.67;;;;;;;20.09;67.55;100032.84;4812171;29;20047;-80
2022/07/29 04:17:45;;;;;;;3.40;1.40;;;;;;;20.17;67.59;100026.31;4815174;29;20046;-81
2022/07/29 04:20:13;;;;;;;3.15;1.55;;;;;;;20.25;66.88;100004.84;4811216;29;20038;-82
2022/07/29 04:22:42;;;;;;;2.70;1.40;;;;;;;20.58;66.39;100040.34;4798320;29;20058;-82
2022/07/29 04:25:09;;;;;;;3.05;1.60;;;;;;;20.72;66.37;100035.25;4811827;29;20050;-80
2022/07/29 04:27:35;;;;;;;3.35;1.40;;;;;;;20.77;65.87;100033.28;4808810;29;20039;-79
2022/07/29 04:30:02;;;;;;;2.13;1.30;;;;;;;20.69;65.70;100016.03;4812185;29;20129;-79
2022/07/29 04:32:29;;;;;;;3.50;1.33;;;;;;;20.75;65.28;100008.66;4809256;29;20107;-80
2022/07/29 04:34:55;;;;;;;1.70;1.20;;;;;;;21.06;64.78;100038.97;4818004;29;20158;-81
2022/07/29 04:37:22;;;;;;;6.07;1.52;;;;;;;21.10;64.35;100022.91;4811831;29;20047;-81
2022/07/29 04:39:48;;;;;;;5.97;1.50;;;;;;;21.26;64.06;100039.75;4813255;29;20129;-80
2022/07/29 04:42:15;;;;;;;3.40;1.40;;;;;;;21.31;63.22;100036.88;4803131;29;20050;-78
2022/07/29 04:44:41;;;;;;;4.80;1.20;;;;;;;21.42;63.51;100039.00;4799857;29;20059;-79
2022/07/29 04:47:08;;;;;;;2.25;1.17;;;;;;;21.37;63.19;100020.72;4814190;29;20075;-78
2022/07/29 04:49:34;;;;;;;1.85;1.20;;;;;;;21.66;62.78;100035.13;4814175;29;20107;-79
2022/07/29 04:52:00;;;;;;;5.05;1.35;;;;;;;21.67;62.67;100028.91;4810557;29;20055;-82
2022/07/29 04:54:26;;;;;;;3.80;1.25;;;;;;;21.77;62.38;100007.22;4813664;29;20103;-79
2022/07/29 04:56:52;;;;;;;2.83;1.55;;;;;;;22.00;62.10;100026.34;4810660;29;20054;-83
2022/07/29 04:59:18;;;;;;;2.65;1.42;;;;;;;22.24;61.48;100048.03;4796595;29;20038;-79
2022/07/29 05:01:54;;;;;;;1.95;1.15;;;;;;;22.30;61.07;100033.59;4793645;29;20042;-83
2022/07/29 05:04:20;;;;;;;3.03;1.10;;;;;;;22.28;60.72;100009.84;4822875;29;20062;-80
2022/07/29 05:06:47;;;;;;;2.75;1.50;;;;;;;22.68;60.20;100036.84;4807669;29;20114;-79
2022/07/29 05:09:14;;;;;;;2.40;1.10;;;;;;;22.84;59.83;100031.50;4810488;29;20043;-80
2022/07/29 05:11:40;;;;;;;3.03;1.35;;;;;;;23.02;59.60;100034.06;4811585;29;20527;-79
2022/07/29 05:14:06;;;;;;;7.90;1.50;;;;;;;23.16;58.78;100031.47;4811676;29;20066;-81
2022/07/29 05:16:33;;;;;;;4.60;1.13;;;;;;;23.26;58.42;100025.66;4808437;29;20054;-81
2022/07/29 05:18:59;;;;;;;2.95;1.20;;;;;;;23.35;57.83;100040.19;4811745;29;20534;-80
2022/07/29 05:21:25;;;;;;;3.13;1.27;;;;;;;23.56;57.57;100038.06;4813963;29;20055;-79
2022/07/29 05:23:51;;;;;;;3.95;1.30;;;;;;;23.69;56.94;100033.75;4815474;29;20502;-80
2022/07/29 05:26:18;;;;;;;3.20;1.45;;;;;;;23.51;56.53;100003.81;4805716;29;20182;-80
2022/07/29 05:28:44;;;;;;;4.05;1.10;;;;;;;23.77;56.54;100026.16;4818562;29;20042;-79
2022/07/29 05:31:11;;;;;;;2.50;1.50;;;;;;;23.99;55.91;100011.56;4814186;29;20060;-80
2022/07/29 05:33:39;;;;;;;2.08;1.00;;;;;;;24.51;55.58;100035.84;4815394;29;20631;-80
2022/07/29 05:36:07;;;;;;;3.10;1.10;;;;;;;24.74;54.22;100020.25;4811535;29;20515;-81
2022/07/29 05:38:35;;;;;;;1.90;1.17;;;;;;;24.95;54.13;100031.28;4798171;29;20043;-81
2022/07/29 05:41:01;;;;;;;2.88;1.00;;;;;;;25.16;52.83;100031.69;4796636;29;20427;-83
2022/07/29 05:43:30;;;;;;;2.72;1.17;;;;;;;25.50;52.16;100023.28;4818789;29;20037;-82
2022/07/29 05:45:57;;;;;;;3.28;1.50;;;;;;;26.59;52.42;100030.78;4826705;29;20050;-84
2022/07/29 05:48:23;;;;;;;2.10;1.20;;;;;;;28.22;51.38;99991.00;4815420;29;20086;-80
2022/07/29 05:50:50;;;;;;;1.30;1.10;;;;;;;30.17;49.42;100004.25;4810515;29;20054;-82
2022/07/29 05:53:16;;;;;;;2.45;1.20;;;;;;;32.03;46.13;100004.38;4808755;29;20088;-78
2022/07/29 05:55:42;;;;;;;5.03;1.23;;;;;;;33.80;42.82;100001.22;4810127;29;20058;-80
2022/07/29 05:58:08;;;;;;;3.05;1.15;;;;;;;34.89;39.70;99995.19;4811857;29;20042;-79
2022/07/29 06:00:35;;;;;;;4.22;1.23;;;;;;;35.94;38.42;100016.06;4818029;29;20046;-79
2022/07/29 06:03:01;;;;;;;6.00;1.40;;;;;;;36.95;36.80;99991.03;4803099;29;20047;-81
2022/07/29 06:05:27;;;;;;;3.95;1.15;;;;;;;38.13;35.62;99983.22;4810711;29;20066;-82
2022/07/29 06:07:55;;;;;;;4.88;1.20;;;;;;;39.39;33.43;100013.78;4810609;29;20061;-81
2022/07/29 06:10:21;;;;;;;2.65;1.10;;;;;;;40.14;30.78;100013.19;4806681;29;20050;-80
2022/07/29 06:12:48;;;;;;;3.60;1.38;;;;;;;40.95;29.74;100008.81;4807231;29;20046;-77
2022/07/29 06:15:15;;;;;;;2.03;1.15;;;;;;;41.67;29.07;100016.38;4794662;29;20142;-81
2022/07/29 06:17:41;;;;;;;1.95;1.20;;;;;;;42.42;28.06;99997.84;4805952;29;20046;-83
2022/07/29 06:20:08;;;;;;;1.75;1.25;;;;;;;43.30;26.81;100011.75;4801218;29;20039;-79
2022/07/29 06:22:34;;;;;;;1.88;0.95;;;;;;;43.64;25.90;100015.00;4815738;29;20039;-80
2022/07/29 06:25:02;;;;;;;4.97;1.30;;;;;;;43.57;25.49;100011.47;4808616;29;20200;-80
2022/07/29 06:27:29;;;;;;;2.47;1.40;;;;;;;43.48;24.78;100003.56;4795893;29;20053;-79
2022/07/29 06:29:57;;;;;;;2.22;1.27;;;;;;;42.34;24.30;99987.97;4827395;29;20153;-78
2022/07/29 06:32:23;;;;;;;2.72;1.10;;;;;;;40.99;23.48;100003.78;4814118;29;20070;-79
2022/07/29 06:34:49;;;;;;;3.50;1.45;;;;;;;41.56;24.66;100003.38;4799133;29;20399;-80
2022/07/29 06:37:16;;;;;;;1.33;1.02;;;;;;;42.32;24.30;99990.09;4809697;29;20050;-79
2022/07/29 06:39:42;;;;;;;2.53;1.33;;;;;;;43.63;23.61;100000.47;4822050;29;20065;-81
2022/07/29 06:42:08;;;;;;;4.45;1.17;;;;;;;44.91;22.88;100000.72;4810820;29;20194;-81
2022/07/29 06:44:35;;;;;;;3.00;1.30;;;;;;;45.86;22.63;99990.53;4795752;29;20499;-84
2022/07/29 06:47:02;;;;;;;4.22;1.40;;;;;;;46.35;21.09;99999.47;4797852;29;20077;-80
2022/07/29 06:49:29;;;;;;;3.40;1.20;;;;;;;46.58;20.45;99999.34;4797426;29;20464;-80
2022/07/29 06:51:56;;;;;;;3.03;1.17;;;;;;;46.14;20.97;99983.41;4811152;29;20051;-83
2022/07/29 06:54:22;;;;;;;3.08;1.45;;;;;;;46.05;19.74;99967.56;4812324;29;20046;-80
2022/07/29 06:56:48;;;;;;;1.55;1.40;;;;;;;45.81;19.63;99990.41;4810217;29;20049;-79
2022/07/29 06:59:14;;;;;;;3.30;1.50;;;;;;;45.88;20.22;100001.28;4808148;29;20046;-80
2022/07/29 07:01:42;;;;;;;2.20;1.50;;;;;;;45.56;20.04;99979.72;4796082;29;20134;-80
2022/07/29 07:04:11;;;;;;;3.20;1.48;;;;;;;46.46;19.81;99991.16;4820499;29;20089;-79
2022/07/29 07:06:37;;;;;;;2.70;1.38;;;;;;;46.64;19.11;99977.44;4810548;29;20522;-81
2022/07/29 07:09:04;;;;;;;2.45;1.23;;;;;;;46.58;18.71;99979.28;4810356;29;20065;-82
2022/07/29 07:11:30;;;;;;;3.42;1.45;;;;;;;47.16;18.13;100003.88;4808511;29;20420;-81
2022/07/29 07:13:56;;;;;;;6.05;1.60;;;;;;;47.73;17.76;99985.44;4808654;29;20546;-79
2022/07/29 07:16:22;;;;;;;3.03;1.40;;;;;;;48.01;17.48;100000.09;4807972;29;20030;-80
2022/07/29 07:18:49;;;;;;;4.25;1.30;;;;;;;47.95;17.33;100002.81;4813291;29;20046;-82
2022/07/29 07:21:15;;;;;;;3.13;1.48;;;;;;;47.15;17.87;99992.03;4815539;29;20054;-81
2022/07/29 07:23:41;;;;;;;1.30;1.20;;;;;;;46.24;18.06;99996.53;4809667;29;20064;-80
2022/07/29 07:26:07;;;;;;;2.13;1.40;;;;;;;46.45;17.89;99989.53;4810077;29;20191;-81
2022/07/29 07:28:33;;;;;;;1.17;0.95;;;;;;;47.79;17.09;99998.16;4810346;29;20042;-79
2022/07/29 07:30:59;;;;;;;1.50;1.27;;;;;;;48.82;16.91;100007.56;4796098;29;20054;-79
2022/07/29 07:33:25;;;;;;;1.40;1.30;;;;;;;49.65;17.02;99985.19;4797916;29;20084;-81
2022/07/29 07:35:51;;;;;;;3.50;1.50;;;;;;;50.36;16.33;99996.75;4796138;29;20034;-84
2022/07/29 07:38:18;;;;;;;2.40;1.52;;;;;;;50.43;16.20;99989.84;4788701;29;21536;-80
2022/07/29 07:40:46;;;;;;;2.10;1.38;;;;;;;50.62;16.69;100004.00;4810430;29;20077;-82
2022/07/29 07:43:12;;;;;;;3.42;1.30;;;;;;;50.76;15.74;100001.47;4802393;29;20054;-82
2022/07/29 07:45:41;;;;;;;4.45;1.63;;;;;;;50.36;15.48;100003.09;4812971;29;20057;-82
2022/07/29 07:48:09;;;;;;;3.13;1.20;;;;;;;48.83;15.38;100003.72;4814864;29;20057;-80
2022/07/29 07:50:36;;;;;;;2.50;1.30;;;;;;;47.47;16.42;99985.91;4813182;29;20031;-81
2022/07/29 07:53:02;;;;;;;2.67;1.45;;;;;;;48.85;16.01;99992.41;4820264;29;20136;-82
2022/07/29 07:55:29;;;;;;;1.85;1.30;;;;;;;50.27;15.39;99979.88;4820187;29;20034;-81
2022/07/29 07:57:55;;;;;;;1.95;1.40;;;;;;;50.95;14.83;100002.88;4807907;29;20057;-82
2022/07/29 08:00:22;;;;;;;2.97;1.58;;;;;;;50.99;14.95;100013.09;4823051;29;20070;-83
2022/07/29 08:02:49;;;;;;;3.20;1.30;;;;;;;50.90;14.78;99990.69;4823241;29;20046;-81
2022/07/29 08:05:16;;;;;;;4.50;1.80;;;;;;;49.23;15.03;100007.03;4838836;29;20067;-82
2022/07/29 08:07:46;;;;;;;3.42;1.70;;;;;;;49.60;15.28;100013.59;4836926;29;20046;-83
2022/07/29 08:13:11;;;;;;;2.90;1.30;;;;;;;49.33;14.77;100011.78;4821792;29;20062;-82
2022/07/29 08:15:39;;;;;;;2.97;1.40;;;;;;;47.02;16.35;100009.75;4838165;29;20034;-82
2022/07/29 08:18:06;;;;;;;2.50;1.30;;;;;;;46.42;16.92;99992.75;4830614;29;20074;-82
2022/07/29 08:20:35;;;;;;;3.55;1.27;;;;;;;46.35;16.42;99994.78;4831431;29;20095;-81
2022/07/29 08:23:10;;;;;;;1.67;1.10;;;;;;;46.82;15.93;99999.22;4821290;29;20046;-81
2022/07/29 08:25:41;;;;;;;3.33;1.40;;;;;;;46.11;16.33;99988.59;4821081;29;20046;-81
2022/07/29 08:28:07;;;;;;;1.40;1.30;;;;;;;47.47;15.63;100001.59;4819554;29;20046;-79
2022/07/29 08:30:34;;;;;;;2.50;1.33;;;;;;;48.88;14.83;99999.34;4817448;29;20046;-83
2022/07/29 08:33:01;;;;;;;4.03;1.63;;;;;;;49.89;14.63;99991.09;4816454;29;20055;-80
2022/07/29 08:35:27;;;;;;;2.22;1.40;;;;;;;49.84;14.19;99985.53;4815508;29;20050;-79
2022/07/29 08:37:54;;;;;;;3.08;1.23;;;;;;;47.63;14.25;99989.72;4811475;29;20459;-81
2022/07/29 08:40:21;;;;;;;3.50;1.25;;;;;;;44.79;15.68;99968.59;4807871;29;20100;-82
2022/07/29 08:42:47;;;;;;;1.85;1.00;;;;;;;43.05;17.59;99974.25;4811107;29;20065;-80
2022/07/29 08:45:13;;;;;;;2.00;1.20;;;;;;;42.37;17.66;99981.22;4814037;29;20057;-81
2022/07/29 08:47:39;;;;;;;2.83;1.20;;;;;;;41.50;18.40;99996.00;4805901;29;20129;-83
2022/07/29 08:50:07;;;;;;;2.88;1.10;;;;;;;41.44;18.79;99988.66;4822495;29;20051;-81
2022/07/29 08:52:37;;;;;;;3.67;1.23;;;;;;;43.57;18.25;99993.13;4828098;29;20094;-82
2022/07/29 08:55:05;;;;;;;1.97;1.53;;;;;;;45.57;17.63;99956.66;4827573;29;20114;-80
2022/07/29 08:57:33;;;;;;;3.25;1.50;;;;;;;46.96;15.70;99979.66;4818302;29;20296;-82
2022/07/29 09:00:01;;;;;;;3.25;1.30;;;;;;;46.26;15.27;99983.38;4800201;29;20047;-83
2022/07/29 09:02:38;;;;;;;2.75;1.20;;;;;;;46.84;15.50;99964.03;4799133;29;20038;-82
2022/07/29 09:05:06;;;;;;;2.10;0.98;;;;;;;45.87;15.91;99980.41;4811777;29;20065;-79
2022/07/29 09:07:32;;;;;;;1.55;1.13;;;;;;;43.86;16.51;99973.44;4812707;29;20431;-81
2022/07/29 09:10:00;;;;;;;6.25;1.40;;;;;;;42.71;17.83;99982.72;4811133;29;20058;-82
2022/07/29 09:12:32;;;;;;;1.35;1.13;;;;;;;42.87;18.43;99955.91;4811956;29;20419;-81
2022/07/29 09:15:01;;;;;;;2.78;1.20;;;;;;;44.47;17.73;99965.31;4809776;29;20422;-83
2022/07/29 09:17:46;;;;;;;4.55;1.42;;;;;;;46.15;16.63;99976.84;4811500;29;20140;-79
2022/07/29 09:23:13;;;;;;;2.38;1.30;;;;;;;48.50;15.32;99977.19;4816368;29;20054;-82
2022/07/29 09:25:40;;;;;;;2.33;1.27;;;;;;;49.15;14.46;99979.94;4822284;29;20538;-81
2022/07/29 09:28:09;;;;;;;2.90;1.33;;;;;;;49.43;13.92;99962.16;4797899;29;20648;-81
2022/07/29 09:30:49;;;;;;;1.97;1.40;;;;;;;49.83;14.02;99970.06;4820257;29;20042;-85
2022/07/29 09:33:16;;;;;;;2.45;1.42;;;;;;;50.10;13.77;99963.50;4807712;29;20049;-82
2022/07/29 09:35:42;;;;;;;1.88;1.33;;;;;;;49.68;13.73;99954.22;4812618;29;20043;-83
2022/07/29 09:38:14;;;;;;;2.95;2.05;;;;;;;50.24;14.11;99972.94;4817360;29;20053;-83
2022/07/29 09:40:40;;;;;;;1.35;1.17;;;;;;;50.43;12.85;99984.31;4813681;29;20105;-82
2022/07/29 09:43:12;;;;;;;2.28;1.30;;;;;;;48.82;13.51;99985.50;4812297;29;20046;-86
2022/07/29 09:45:38;;;;;;;3.90;1.35;;;;;;;48.02;13.70;99974.19;4809122;29;20045;-84
2022/07/29 09:48:19;;;;;;;3.22;1.80;;;;;;;48.30;13.20;99973.13;4802118;29;20051;-84
2022/07/29 09:50:49;;;;;;;5.38;1.50;;;;;;;49.05;13.26;99968.78;4794857;29;20049;-87
2022/07/29 09:53:39;;;;;;;5.63;1.30;;;;;;;49.82;13.98;99979.47;4809994;29;20118;-87
2022/07/29 09:56:05;;;;;;;3.33;1.60;;;;;;;50.65;13.28;99987.94;4814399;29;20050;-83
2022/07/29 09:58:35;;;;;;;1.75;1.20;;;;;;;49.64;13.26;99970.53;4816022;29;20050;-82
2022/07/29 10:01:01;;;;;;;3.25;1.50;;;;;;;47.02;13.78;99943.69;4813559;29;20046;-85
2022/07/29 10:03:28;;;;;;;2.08;1.23;;;;;;;46.38;14.57;99969.56;4815270;29;20042;-86
2022/07/29 10:06:13;;;;;;;2.60;1.10;;;;;;;45.54;14.16;99941.53;4818040;29;20046;-88
2022/07/29 10:08:46;;;;;;;4.78;1.40;;;;;;;43.74;15.53;99990.66;4808261;29;20066;-83
2022/07/29 10:11:15;;;;;;;3.33;1.02;;;;;;;44.15;15.88;99957.31;4786926;29;20068;-86
2022/07/29 10:13:43;;;;;;;2.95;1.20;;;;;;;45.11;15.86;99978.44;4819204;29;20054;-87
2022/07/29 10:16:13;;;;;;;1.95;1.10;;;;;;;44.92;15.04;99956.56;4792978;29;20053;-86
2022/07/29 10:18:41;;;;;;;1.55;1.00;;;;;;;43.22;15.43;99946.34;4811845;29;20311;-86
2022/07/29 10:21:11;;;;;;;2.30;1.02;;;;;;;41.60;17.13;99950.00;4797756;29;20149;-82
2022/07/29 10:23:37;;;;;;;1.65;0.90;;;;;;;40.53;18.05;99966.38;4834200;29;20068;-87
2022/07/29 10:26:03;;;;;;;2.60;1.25;;;;;;;39.79;18.91;99944.31;4817618;29;20046;-87
2022/07/29 10:28:33;;;;;;;2.03;1.00;;;;;;;41.22;18.38;99928.88;4805371;29;20142;-88
2022/07/29 10:31:04;;;;;;;1.37;1.17;;;;;;;43.09;17.20;99941.81;4812305;29;20459;-86
2022/07/29 10:33:55;;;;;;;3.17;1.00;;;;;;;44.43;16.54;99962.16;4813633;29;20564;-84
2022/07/29 10:36:59;;;;;;;6.80;1.30;;;;;;;43.61;16.75;99964.25;4841171;24;20068;-85
2022/07/29 10:39:50;;;;;;;3.13;1.02;;;;;;;41.78;17.14;99962.16;4834370;29;20663;-84
2022/07/29 10:42:21;;;;;;;1.48;1.00;;;;;;;40.43;18.27;99956.72;4834443;29;20037;-82
2022/07/29 10:44:48;;;;;;;1.08;0.98;;;;;;;39.65;18.88;99951.56;4836496;29;20045;-86
2022/07/29 10:47:20;;;;;;;2.72;1.20;;;;;;;38.99;19.34;99967.22;4839850;29;20042;-82
2022/07/29 10:49:59;;;;;;;2.95;1.10;;;;;;;38.04;19.71;99967.22;4838096;29;20052;-84
2022/07/29 10:52:52;;;;;;;2.00;0.90;;;;;;;37.06;21.13;99962.66;4836744;29;20253;-85
2022/07/29 10:55:44;;;;;;;2.03;1.23;;;;;;;36.12;21.69;99975.25;4837486;29;21464;-82
2022/07/29 10:58:16;;;;;;;1.40;0.95;;;;;;;35.60;22.29;99957.66;4839883;29;20155;-83
2022/07/29 11:00:42;;;;;;;4.30;1.25;;;;;;;35.43;22.55;99973.06;4834628;29;20037;-83
2022/07/29 11:03:08;;;;;;;2.70;1.00;;;;;;;34.88;23.41;99948.41;4839620;29;20049;-84
2022/07/29 11:05:56;;;;;;;2.50;0.93;;;;;;;34.35;23.31;99970.25;4837203;29;20126;-81
2022/07/29 11:08:25;;;;;;;2.78;1.02;;;;;;;33.77;23.60;99969.16;4821523;29;20398;-84
2022/07/29 11:11:10;;;;;;;2.38;1.25;;;;;;;33.39;23.94;99955.13;4820773;29;20145;-82
2022/07/29 11:13:43;;;;;;;3.15;0.95;;;;;;;33.30;24.29;99986.56;4817574;29;20072;-80
2022/07/29 11:16:09;;;;;;;1.90;0.85;;;;;;;32.26;25.37;99942.97;4832743;29;20054;-81
2022/07/29 11:18:35;;;;;;;2.67;1.20;;;;;;;32.04;25.75;99937.00;4837434;29;20046;-81
2022/07/29 11:21:01;;;;;;;1.02;0.93;;;;;;;32.02;26.15;99982.03;4839102;29;20101;-81
2022/07/29 11:23:35;;;;;;;2.72;1.00;;;;;;;31.66;26.01;99973.81;4837602;29;20046;-83
2022/07/29 11:26:14;;;;;;;1.27;0.98;;;;;;;31.57;26.61;99988.09;4831791;29;20495;-81
2022/07/29 11:28:56;;;;;;;2.38;1.08;;;;;;;31.46;27.07;99987.28;4842220;29;20071;-79
2022/07/29 11:31:44;;;;;;;3.95;0.90;;;;;;;31.18;26.90;99992.56;4842249;29;20176;-79
2022/07/29 11:34:32;;;;;;;1.30;0.80;;;;;;;30.93;27.06;99984.06;4850009;29;20049;-82
2022/07/29 11:37:11;;;;;;;1.35;0.77;;;;;;;30.88;27.83;99997.06;4841969;29;20491;-80
2022/07/29 11:40:07;;;;;;;2.00;0.90;;;;;;;30.62;27.75;99991.41;4843704;29;20042;-80
2022/07/29 11:42:38;;;;;;;3.25;1.00;;;;;;;30.56;28.24;99987.44;4843689;29;20102;-83
2022/07/29 11:45:23;;;;;;;6.60;1.35;;;;;;;30.33;27.60;99951.91;4842995;29;20125;-81
2022/07/29 11:47:55;;;;;;;4.20;1.10;;;;;;;30.35;28.00;99961.50;4859499;29;20053;-80